Terminal Aerodrome Forecast
Issued by NWS Memphis, TN

Home | Current Version | Previous Version | Text Only | Print | Product List | Glossary On
Versions: 1 2 3 4 5 6 7 8 9 10 11 12 13 14 15 16 17 18 19 20 21
000
FTUS44 KMEG 300535
TAFJBR
TAF
KJBR 300535Z 3006/3106 17010G17KT P6SM VCSH SCT050 OVC080
      WS020/19050KT
     FM300800 18012G19KT P6SM VCTS SCT035CB OVC050 WS020/21055KT
      TEMPO 3008/3010 VRB15G30KT 3SM TSRA SCT010 OVC035CB
     FM301000 18012G18KT 6SM -SHRA VCTS BKN025 OVC035CB
      WS020/21055KT
     FM301400 20015G22KT P6SM VCTS SCT025 BKN040CB
     FM301800 22015G22KT P6SM BKN040 OVC150
     FM310000 24008KT P6SM BKN040=

USA.gov is the U.S. government's official web portal to all federal, state and local government web resources and services.